sensor_id;sensor_type;location;lat;lon;timestamp;pressure;altitude;pressure_sealevel;temperature;humidity
7075;BME280;3578;51.568;6.932;2022-07-29T00:02:22;55810.25;;;-144.14;51.81
7075;BME280;3578;51.568;6.932;2022-07-29T00:04:49;55826.31;;;-144.14;52.62
7075;BME280;3578;51.568;6.932;2022-07-29T00:07:18;55774.16;;;-144.14;52.60
7075;BME280;3578;51.568;6.932;2022-07-29T00:09:45;55808.25;;;-144.14;54.17
7075;BME280;3578;51.568;6.932;2022-07-29T00:12:12;55808.25;;;-144.14;53.08
7075;BME280;3578;51.568;6.932;2022-07-29T00:14:39;55798.22;;;-144.14;53.99
7075;BME280;3578;51.568;6.932;2022-07-29T00:17:06;55784.19;;;-144.14;52.94
7075;BME280;3578;51.568;6.932;2022-07-29T00:19:33;55816.28;;;-144.14;55.17
7075;BME280;3578;51.568;6.932;2022-07-29T00:22:00;55802.25;;;-144.14;55.63
7075;BME280;3578;51.568;6.932;2022-07-29T00:24:28;55760.13;;;-144.14;55.83
7075;BME280;3578;51.568;6.932;2022-07-29T00:26:55;55778.19;;;-144.14;55.11
7075;BME280;3578;51.568;6.932;2022-07-29T00:29:23;55808.25;;;-144.14;51.33
7075;BME280;3578;51.568;6.932;2022-07-29T00:31:50;55808.25;;;-144.14;49.60
7075;BME280;3578;51.568;6.932;2022-07-29T00:34:18;55848.38;;;-144.14;49.19
7075;BME280;3578;51.568;6.932;2022-07-29T00:37:02;55866.44;;;-144.14;50.45
7075;BME280;3578;51.568;6.932;2022-07-29T00:39:31;55828.31;;;-144.14;51.90
7075;BME280;3578;51.568;6.932;2022-07-29T00:41:58;55820.28;;;-144.14;49.33
7075;BME280;3578;51.568;6.932;2022-07-29T00:44:25;55832.31;;;-144.14;50.21
7075;BME280;3578;51.568;6.932;2022-07-29T00:46:52;55850.38;;;-144.14;49.61
7075;BME280;3578;51.568;6.932;2022-07-29T00:49:19;55816.28;;;-144.14;49.29
7075;BME280;3578;51.568;6.932;2022-07-29T00:51:46;55856.41;;;-144.14;48.76
7075;BME280;3578;51.568;6.932;2022-07-29T00:54:15;55862.41;;;-144.14;48.97
7075;BME280;3578;51.568;6.932;2022-07-29T00:56:43;55820.28;;;-144.14;50.61
7075;BME280;3578;51.568;6.932;2022-07-29T00:59:10;55786.19;;;-144.14;50.10
7075;BME280;3578;51.568;6.932;2022-07-29T01:01:37;55810.25;;;-144.14;49.84
7075;BME280;3578;51.568;6.932;2022-07-29T01:04:06;55792.22;;;-144.14;49.84
7075;BME280;3578;51.568;6.932;2022-07-29T01:06:33;55820.28;;;-144.14;49.93
7075;BME280;3578;51.568;6.932;2022-07-29T01:09:01;55792.22;;;-144.14;49.56
7075;BME280;3578;51.568;6.932;2022-07-29T01:11:29;55814.28;;;-144.14;50.66
7075;BME280;3578;51.568;6.932;2022-07-29T01:13:57;55744.09;;;-144.14;51.98
7075;BME280;3578;51.568;6.932;2022-07-29T01:16:29;55744.09;;;-144.14;52.00
7075;BME280;3578;51.568;6.932;2022-07-29T01:19:06;55738.06;;;-144.14;51.48
7075;BME280;3578;51.568;6.932;2022-07-29T01:21:50;55756.13;;;-144.14;51.29
7075;BME280;3578;51.568;6.932;2022-07-29T01:24:54;55732.06;;;-144.14;52.70
7075;BME280;3578;51.568;6.932;2022-07-29T01:27:59;55720.00;;;-144.14;51.83
7075;BME280;3578;51.568;6.932;2022-07-29T01:30:30;55732.06;;;-144.14;51.32
7075;BME280;3578;51.568;6.932;2022-07-29T01:33:03;55716.00;;;-144.14;52.33
7075;BME280;3578;51.568;6.932;2022-07-29T01:35:36;55699.97;;;-144.14;52.91
7075;BME280;3578;51.568;6.932;2022-07-29T01:38:10;55701.97;;;-144.14;53.43
7075;BME280;3578;51.568;6.932;2022-07-29T01:40:45;55716.00;;;-144.14;53.33
7075;BME280;3578;51.568;6.932;2022-07-29T01:43:16;55716.00;;;-144.14;54.47
7075;BME280;3578;51.568;6.932;2022-07-29T01:45:50;55687.94;;;-144.14;55.91
7075;BME280;3578;51.568;6.932;2022-07-29T01:48:22;55661.84;;;-144.14;56.40
7075;BME280;3578;51.568;6.932;2022-07-29T01:50:55;55639.78;;;-144.14;56.70
7075;BME280;3578;51.568;6.932;2022-07-29T01:53:33;55621.75;;;-144.14;56.82
7075;BME280;3578;51.568;6.932;2022-07-29T01:56:02;55637.78;;;-144.14;58.19
7075;BME280;3578;51.568;6.932;2022-07-29T01:58:31;55609.72;;;-144.14;60.61
7075;BME280;3578;51.568;6.932;2022-07-29T02:01:02;55627.75;;;-144.14;62.52
7075;BME280;3578;51.568;6.932;2022-07-29T02:03:31;55579.63;;;-144.14;63.91
7075;BME280;3578;51.568;6.932;2022-07-29T02:06:02;55597.69;;;-144.14;64.40
7075;BME280;3578;51.568;6.932;2022-07-29T02:08:31;55579.63;;;-144.14;65.08
7075;BME280;3578;51.568;6.932;2022-07-29T02:11:01;55561.59;;;-144.14;63.52
7075;BME280;3578;51.568;6.932;2022-07-29T02:13:30;55579.63;;;-144.14;63.84
7075;BME280;3578;51.568;6.932;2022-07-29T02:16:01;55577.63;;;-144.14;66.28
7075;BME280;3578;51.568;6.932;2022-07-29T02:18:30;55559.56;;;-144.14;66.42
7075;BME280;3578;51.568;6.932;2022-07-29T02:20:59;55551.56;;;-144.14;66.21
7075;BME280;3578;51.568;6.932;2022-07-29T02:23:27;55533.50;;;-144.14;66.97
7075;BME280;3578;51.568;6.932;2022-07-29T02:25:56;55547.53;;;-144.14;68.16
7075;BME280;3578;51.568;6.932;2022-07-29T02:28:27;55555.56;;;-144.14;67.34
7075;BME280;3578;51.568;6.932;2022-07-29T02:30:56;55527.50;;;-144.14;65.63
7075;BME280;3578;51.568;6.932;2022-07-29T02:33:26;55555.56;;;-144.14;65.39
7075;BME280;3578;51.568;6.932;2022-07-29T02:35:57;55553.56;;;-144.14;65.44
7075;BME280;3578;51.568;6.932;2022-07-29T02:38:27;55525.47;;;-144.14;66.37
7075;BME280;3578;51.568;6.932;2022-07-29T02:41:16;55499.41;;;-144.14;65.15
7075;BME280;3578;51.568;6.932;2022-07-29T02:43:47;55475.34;;;-144.14;63.08
7075;BME280;3578;51.568;6.932;2022-07-29T02:46:20;55477.34;;;-144.14;62.74
7075;BME280;3578;51.568;6.932;2022-07-29T02:49:07;55461.31;;;-144.14;63.59
7075;BME280;3578;51.568;6.932;2022-07-29T02:51:43;55501.41;;;-144.14;62.74
7075;BME280;3578;51.568;6.932;2022-07-29T02:54:22;55423.22;;;-144.14;65.61
7075;BME280;3578;51.568;6.932;2022-07-29T02:56:52;55371.06;;;-144.14;67.67
7075;BME280;3578;51.568;6.932;2022-07-29T02:59:26;55415.19;;;-144.14;70.75
7075;BME280;3578;51.568;6.932;2022-07-29T03:01:55;55419.19;;;-144.14;70.94
7075;BME280;3578;51.568;6.932;2022-07-29T03:04:26;55429.22;;;-144.14;72.18
7075;BME280;3578;51.568;6.932;2022-07-29T03:06:56;55355.03;;;-144.14;69.77
7075;BME280;3578;51.568;6.932;2022-07-29T03:09:25;55343.00;;;-144.14;68.90
7075;BME280;3578;51.568;6.932;2022-07-29T03:11:55;55355.03;;;-144.14;69.01
7075;BME280;3578;51.568;6.932;2022-07-29T03:14:23;55355.03;;;-144.14;67.90
7075;BME280;3578;51.568;6.932;2022-07-29T03:16:51;55363.03;;;-144.14;67.97
7075;BME280;3578;51.568;6.932;2022-07-29T03:19:19;55385.09;;;-144.14;68.45
7075;BME280;3578;51.568;6.932;2022-07-29T03:21:48;55395.13;;;-144.14;68.38
7075;BME280;3578;51.568;6.932;2022-07-29T03:24:31;55377.09;;;-144.14;67.24
7075;BME280;3578;51.568;6.932;2022-07-29T03:26:59;55399.13;;;-144.14;67.62
7075;BME280;3578;51.568;6.932;2022-07-29T03:29:27;55393.13;;;-144.14;69.97
7075;BME280;3578;51.568;6.932;2022-07-29T03:31:54;55399.13;;;-144.14;70.76
7075;BME280;3578;51.568;6.932;2022-07-29T03:34:21;55415.19;;;-144.14;69.06
7075;BME280;3578;51.568;6.932;2022-07-29T03:36:50;55391.13;;;-144.14;68.76
7075;BME280;3578;51.568;6.932;2022-07-29T03:39:20;55399.13;;;-144.14;67.96
7075;BME280;3578;51.568;6.932;2022-07-29T03:41:51;55395.13;;;-144.14;68.04
7075;BME280;3578;51.568;6.932;2022-07-29T03:44:19;55397.13;;;-144.14;70.88
7075;BME280;3578;51.568;6.932;2022-07-29T03:46:49;55363.03;;;-144.14;71.35
7075;BME280;3578;51.568;6.932;2022-07-29T03:49:18;55361.03;;;-144.14;71.11
7075;BME280;3578;51.568;6.932;2022-07-29T03:51:46;55421.19;;;-144.14;71.49
7075;BME280;3578;51.568;6.932;2022-07-29T03:54:15;55397.13;;;-144.14;69.46
7075;BME280;3578;51.568;6.932;2022-07-29T03:56:46;55355.03;;;-144.14;68.38
7075;BME280;3578;51.568;6.932;2022-07-29T03:59:16;55365.06;;;-144.14;68.56
7075;BME280;3578;51.568;6.932;2022-07-29T04:01:46;55387.09;;;-144.14;68.50
7075;BME280;3578;51.568;6.932;2022-07-29T04:04:13;55359.03;;;-144.14;67.97
7075;BME280;3578;51.568;6.932;2022-07-29T04:06:41;55367.06;;;-144.14;67.57
7075;BME280;3578;51.568;6.932;2022-07-29T04:09:09;55347.00;;;-144.14;68.14
7075;BME280;3578;51.568;6.932;2022-07-29T04:11:39;55405.16;;;-144.14;68.37
7075;BME280;3578;51.568;6.932;2022-07-29T04:14:06;55338.97;;;-144.14;67.77
7075;BME280;3578;51.568;6.932;2022-07-29T04:16:33;55326.94;;;-144.14;68.62
7075;BME280;3578;51.568;6.932;2022-07-29T04:19:00;55377.09;;;-144.14;69.87
7075;BME280;3578;51.568;6.932;2022-07-29T04:21:28;55379.09;;;-144.14;69.41
7075;BME280;3578;51.568;6.932;2022-07-29T04:23:55;55330.97;;;-144.14;69.77
7075;BME280;3578;51.568;6.932;2022-07-29T04:26:22;55318.94;;;-144.14;70.45
7075;BME280;3578;51.568;6.932;2022-07-29T04:28:50;55304.88;;;-144.14;70.34
7075;BME280;3578;51.568;6.932;2022-07-29T04:31:17;55308.91;;;-144.14;71.10
7075;BME280;3578;51.568;6.932;2022-07-29T04:33:44;55347.00;;;-144.14;74.17
7075;BME280;3578;51.568;6.932;2022-07-29T04:36:11;55278.81;;;-144.14;82.75
7075;BME280;3578;51.568;6.932;2022-07-29T04:38:38;55196.59;;;-144.14;85.43
7075;BME280;3578;51.568;6.932;2022-07-29T04:41:06;55138.44;;;-144.14;87.88
7075;BME280;3578;51.568;6.932;2022-07-29T04:43:34;55120.41;;;-144.14;92.46
7075;BME280;3578;51.568;6.932;2022-07-29T04:46:03;55082.31;;;-144.14;94.58
7075;BME280;3578;51.568;6.932;2022-07-29T04:48:30;55138.44;;;-144.14;95.66
7075;BME280;3578;51.568;6.932;2022-07-29T04:50:57;55102.34;;;-144.14;97.23
7075;BME280;3578;51.568;6.932;2022-07-29T04:53:25;55042.22;;;-144.14;98.68
7075;BME280;3578;51.568;6.932;2022-07-29T04:55:52;54998.09;;;-144.14;100.00
7075;BME280;3578;51.568;6.932;2022-07-29T04:58:19;55016.13;;;-144.14;100.00
7075;BME280;3578;51.568;6.932;2022-07-29T05:00:48;55036.19;;;-144.14;100.00
7075;BME280;3578;51.568;6.932;2022-07-29T05:03:17;55006.13;;;-144.14;100.00
7075;BME280;3578;51.568;6.932;2022-07-29T05:05:44;55018.16;;;-144.14;100.00
7075;BME280;3578;51.568;6.932;2022-07-29T05:08:11;55044.22;;;-144.14;100.00
7075;BME280;3578;51.568;6.932;2022-07-29T05:10:38;55036.19;;;-144.14;100.00
7075;BME280;3578;51.568;6.932;2022-07-29T05:13:05;55058.25;;;-144.14;100.00
7075;BME280;3578;51.568;6.932;2022-07-29T05:15:34;55060.25;;;-144.14;100.00
7075;BME280;3578;51.568;6.932;2022-07-29T05:18:02;55062.25;;;-144.14;100.00
7075;BME280;3578;51.568;6.932;2022-07-29T05:20:31;55070.28;;;-144.14;100.00
7075;BME280;3578;51.568;6.932;2022-07-29T05:23:00;55098.34;;;-144.14;99.25
7075;BME280;3578;51.568;6.932;2022-07-29T05:25:28;55100.34;;;-144.14;99.27
7075;BME280;3578;51.568;6.932;2022-07-29T05:27:56;55046.22;;;-144.14;99.03
7075;BME280;3578;51.568;6.932;2022-07-29T05:30:23;55088.31;;;-144.14;98.17
7075;BME280;3578;51.568;6.932;2022-07-29T05:32:51;55058.25;;;-144.14;98.04
7075;BME280;3578;51.568;6.932;2022-07-29T05:35:18;55046.22;;;-144.14;97.72
7075;BME280;3578;51.568;6.932;2022-07-29T05:37:46;55048.22;;;-144.14;97.50
7075;BME280;3578;51.568;6.932;2022-07-29T05:40:13;55040.19;;;-144.14;97.44
7075;BME280;3578;51.568;6.932;2022-07-29T05:42:40;55006.13;;;-144.14;97.49
7075;BME280;3578;51.568;6.932;2022-07-29T05:45:08;55070.28;;;-144.14;97.01
7075;BME280;3578;51.568;6.932;2022-07-29T05:47:35;55036.19;;;-144.14;96.83
7075;BME280;3578;51.568;6.932;2022-07-29T05:50:03;55030.19;;;-144.14;97.29
7075;BME280;3578;51.568;6.932;2022-07-29T05:52:31;55126.41;;;-144.14;99.44
7075;BME280;3578;51.568;6.932;2022-07-29T05:55:00;55142.47;;;-144.14;99.92
7075;BME280;3578;51.568;6.932;2022-07-29T05:57:30;55088.31;;;-144.14;99.49
7075;BME280;3578;51.568;6.932;2022-07-29T05:59:57;55132.44;;;-144.14;99.41
7075;BME280;3578;51.568;6.932;2022-07-29T06:02:24;55086.31;;;-144.14;99.01
7075;BME280;3578;51.568;6.932;2022-07-29T06:04:52;55090.31;;;-144.14;98.56
7075;BME280;3578;51.568;6.932;2022-07-29T06:07:19;55084.31;;;-144.14;97.65
7075;BME280;3578;51.568;6.932;2022-07-29T06:09:46;55102.34;;;-144.14;97.69
7075;BME280;3578;51.568;6.932;2022-07-29T06:12:14;55096.34;;;-144.14;98.25
7075;BME280;3578;51.568;6.932;2022-07-29T06:14:41;55050.22;;;-144.14;99.09
7075;BME280;3578;51.568;6.932;2022-07-29T06:17:08;55090.31;;;-144.14;99.57
7075;BME280;3578;51.568;6.932;2022-07-29T06:19:37;55078.28;;;-144.14;99.93
7075;BME280;3578;51.568;6.932;2022-07-29T06:22:04;55114.38;;;-144.14;99.95
7075;BME280;3578;51.568;6.932;2022-07-29T06:24:31;55096.34;;;-144.14;99.53
7075;BME280;3578;51.568;6.932;2022-07-29T06:26:58;55106.38;;;-144.14;99.80
7075;BME280;3578;51.568;6.932;2022-07-29T06:29:27;55106.38;;;-144.14;99.98
7075;BME280;3578;51.568;6.932;2022-07-29T06:31:57;55120.41;;;-144.14;100.00
7075;BME280;3578;51.568;6.932;2022-07-29T06:34:24;55102.34;;;-144.14;99.73
7075;BME280;3578;51.568;6.932;2022-07-29T06:36:51;55094.34;;;-144.14;98.48
7075;BME280;3578;51.568;6.932;2022-07-29T06:39:20;55144.47;;;-144.14;98.34
7075;BME280;3578;51.568;6.932;2022-07-29T06:41:48;55110.38;;;-144.14;99.12
7075;BME280;3578;51.568;6.932;2022-07-29T06:44:16;55180.56;;;-144.14;100.00
7075;BME280;3578;51.568;6.932;2022-07-29T06:46:45;55140.47;;;-144.14;100.00
7075;BME280;3578;51.568;6.932;2022-07-29T06:49:14;55134.44;;;-144.14;100.00
7075;BME280;3578;51.568;6.932;2022-07-29T06:51:41;55154.50;;;-144.14;100.00
7075;BME280;3578;51.568;6.932;2022-07-29T06:54:08;55158.50;;;-144.14;100.00
7075;BME280;3578;51.568;6.932;2022-07-29T06:56:36;55214.66;;;-144.14;100.00
7075;BME280;3578;51.568;6.932;2022-07-29T06:59:04;55202.63;;;-144.14;100.00
7075;BME280;3578;51.568;6.932;2022-07-29T07:01:31;55222.66;;;-144.14;100.00
7075;BME280;3578;51.568;6.932;2022-07-29T07:04:00;55218.66;;;-144.14;100.00
7075;BME280;3578;51.568;6.932;2022-07-29T07:06:27;55228.69;;;-144.14;100.00
7075;BME280;3578;51.568;6.932;2022-07-29T07:08:54;55222.66;;;-144.14;100.00
7075;BME280;3578;51.568;6.932;2022-07-29T07:11:21;55226.69;;;-144.14;100.00
7075;BME280;3578;51.568;6.932;2022-07-29T07:13:48;55258.78;;;-144.14;100.00
7075;BME280;3578;51.568;6.932;2022-07-29T07:16:15;55302.88;;;-144.14;100.00
7075;BME280;3578;51.568;6.932;2022-07-29T07:18:42;55258.78;;;-144.14;100.00
7075;BME280;3578;51.568;6.932;2022-07-29T07:21:12;55294.88;;;-144.14;100.00
7075;BME280;3578;51.568;6.932;2022-07-29T07:23:39;55334.97;;;-144.14;100.00
7075;BME280;3578;51.568;6.932;2022-07-29T07:26:06;55353.03;;;-144.14;100.00
7075;BME280;3578;51.568;6.932;2022-07-29T07:28:33;55312.91;;;-144.14;100.00
7075;BME280;3578;51.568;6.932;2022-07-29T07:31:00;55296.88;;;-144.14;100.00
7075;BME280;3578;51.568;6.932;2022-07-29T07:33:27;55391.13;;;-144.14;100.00
7075;BME280;3578;51.568;6.932;2022-07-29T07:35:54;55351.00;;;-144.14;100.00
7075;BME280;3578;51.568;6.932;2022-07-29T07:38:22;55367.06;;;-144.14;100.00
7075;BME280;3578;51.568;6.932;2022-07-29T07:40:49;55391.13;;;-144.14;100.00
7075;BME280;3578;51.568;6.932;2022-07-29T07:43:17;55439.25;;;-144.14;100.00
7075;BME280;3578;51.568;6.932;2022-07-29T07:45:43;55439.25;;;-144.14;100.00
7075;BME280;3578;51.568;6.932;2022-07-29T07:48:10;55451.28;;;-144.14;99.92
7075;BME280;3578;51.568;6.932;2022-07-29T07:50:38;55457.28;;;-144.14;99.96
7075;BME280;3578;51.568;6.932;2022-07-29T07:53:05;55447.28;;;-144.14;99.86
7075;BME280;3578;51.568;6.932;2022-07-29T07:55:33;55471.34;;;-144.14;100.00
7075;BME280;3578;51.568;6.932;2022-07-29T07:58:05;55485.38;;;-144.14;100.00
7075;BME280;3578;51.568;6.932;2022-07-29T08:00:32;55487.38;;;-144.14;100.00
7075;BME280;3578;51.568;6.932;2022-07-29T08:03:00;55521.47;;;-144.14;100.00
7075;BME280;3578;51.568;6.932;2022-07-29T08:05:27;55509.44;;;-144.14;100.00
7075;BME280;3578;51.568;6.932;2022-07-29T08:07:54;55511.44;;;-144.14;99.78
7075;BME280;3578;51.568;6.932;2022-07-29T08:10:21;55533.50;;;-144.14;99.96
7075;BME280;3578;51.568;6.932;2022-07-29T08:13:04;55551.56;;;-144.14;99.25
7075;BME280;3578;51.568;6.932;2022-07-29T08:15:32;55495.41;;;-144.14;98.55
7075;BME280;3578;51.568;6.932;2022-07-29T08:18:00;55531.50;;;-144.14;98.77
7075;BME280;3578;51.568;6.932;2022-07-29T08:20:28;55529.50;;;-144.14;99.11
7075;BME280;3578;51.568;6.932;2022-07-29T08:22:55;55541.53;;;-144.14;99.39
7075;BME280;3578;51.568;6.932;2022-07-29T08:25:22;55575.63;;;-144.14;98.73
7075;BME280;3578;51.568;6.932;2022-07-29T08:27:49;55551.56;;;-144.14;98.10
7075;BME280;3578;51.568;6.932;2022-07-29T08:30:18;55571.59;;;-144.14;97.61
7075;BME280;3578;51.568;6.932;2022-07-29T08:32:45;55577.63;;;-144.14;97.41
7075;BME280;3578;51.568;6.932;2022-07-29T08:35:14;55551.56;;;-144.14;97.25
7075;BME280;3578;51.568;6.932;2022-07-29T08:37:41;55599.69;;;-144.14;97.65
7075;BME280;3578;51.568;6.932;2022-07-29T08:40:10;55575.63;;;-144.14;97.72
7075;BME280;3578;51.568;6.932;2022-07-29T08:42:37;55637.78;;;-144.14;97.43
7075;BME280;3578;51.568;6.932;2022-07-29T08:45:06;55619.75;;;-144.14;97.05
7075;BME280;3578;51.568;6.932;2022-07-29T08:47:35;55651.81;;;-144.14;96.87
7075;BME280;3578;51.568;6.932;2022-07-29T08:50:06;55613.72;;;-144.14;97.05
7075;BME280;3578;51.568;6.932;2022-07-29T08:52:37;55659.84;;;-144.14;97.16
7075;BME280;3578;51.568;6.932;2022-07-29T08:55:06;55651.81;;;-144.14;97.70
7075;BME280;3578;51.568;6.932;2022-07-29T08:57:35;55595.69;;;-144.14;97.14
7075;BME280;3578;51.568;6.932;2022-07-29T09:00:05;55587.66;;;-144.14;97.13
7075;BME280;3578;51.568;6.932;2022-07-29T09:02:42;55611.72;;;-144.14;97.11
7075;BME280;3578;51.568;6.932;2022-07-29T09:05:12;55627.75;;;-144.14;97.13
7075;BME280;3578;51.568;6.932;2022-07-29T09:07:39;55595.69;;;-144.14;97.11
7075;BME280;3578;51.568;6.932;2022-07-29T09:10:09;55639.78;;;-144.14;97.21
7075;BME280;3578;51.568;6.932;2022-07-29T09:12:36;55683.91;;;-144.14;97.55
7075;BME280;3578;51.568;6.932;2022-07-29T09:15:04;55703.97;;;-144.14;97.64
7075;BME280;3578;51.568;6.932;2022-07-29T09:17:43;55736.06;;;-144.14;96.89
7075;BME280;3578;51.568;6.932;2022-07-29T09:20:12;55746.09;;;-144.14;96.33
7075;BME280;3578;51.568;6.932;2022-07-29T09:22:40;55780.19;;;-144.14;96.32
7075;BME280;3578;51.568;6.932;2022-07-29T09:25:08;55820.28;;;-144.14;94.84
7075;BME280;3578;51.568;6.932;2022-07-29T09:27:37;55836.34;;;-144.14;94.22
7075;BME280;3578;51.568;6.932;2022-07-29T09:30:07;55808.25;;;-144.14;94.61
7075;BME280;3578;51.568;6.932;2022-07-29T09:32:57;55820.28;;;-144.14;94.68
7075;BME280;3578;51.568;6.932;2022-07-29T09:35:27;55866.44;;;-144.14;94.30
7075;BME280;3578;51.568;6.932;2022-07-29T09:37:55;55876.44;;;-144.14;94.04
7075;BME280;3578;51.568;6.932;2022-07-29T09:40:25;55904.53;;;-144.14;93.71
7075;BME280;3578;51.568;6.932;2022-07-29T09:42:52;55964.69;;;-144.14;93.54
7075;BME280;3578;51.568;6.932;2022-07-29T09:45:30;56020.88;;;-144.14;92.92
7075;BME280;3578;51.568;6.932;2022-07-29T09:48:00;56024.88;;;-144.14;92.79
7075;BME280;3578;51.568;6.932;2022-07-29T09:50:41;56040.91;;;-144.14;92.24
7075;BME280;3578;51.568;6.932;2022-07-29T09:53:10;56054.97;;;-144.14;92.10
7075;BME280;3578;51.568;6.932;2022-07-29T09:55:48;56000.81;;;-144.14;90.91
7075;BME280;3578;51.568;6.932;2022-07-29T09:58:16;56050.94;;;-144.14;90.83
7075;BME280;3578;51.568;6.932;2022-07-29T10:00:45;56042.94;;;-144.14;89.71
7075;BME280;3578;51.568;6.932;2022-07-29T10:03:15;56081.03;;;-144.14;89.38
7075;BME280;3578;51.568;6.932;2022-07-29T10:05:43;56143.22;;;-144.14;86.96
7075;BME280;3578;51.568;6.932;2022-07-29T10:08:11;56177.31;;;-144.14;85.04
7075;BME280;3578;51.568;6.932;2022-07-29T10:10:40;56189.34;;;-144.14;84.85
7075;BME280;3578;51.568;6.932;2022-07-29T10:13:10;56217.44;;;-144.14;84.77
7075;BME280;3578;51.568;6.932;2022-07-29T10:15:39;56307.69;;;-144.14;89.57
7075;BME280;3578;51.568;6.932;2022-07-29T10:18:10;56299.66;;;-144.14;86.34
7075;BME280;3578;51.568;6.932;2022-07-29T10:20:39;56285.63;;;-144.14;84.43
7075;BME280;3578;51.568;6.932;2022-07-29T10:23:06;56297.66;;;-144.14;84.19
7075;BME280;3578;51.568;6.932;2022-07-29T10:25:33;56227.47;;;-144.14;83.14
7075;BME280;3578;51.568;6.932;2022-07-29T10:28:00;56235.47;;;-144.14;83.63
7075;BME280;3578;51.568;6.932;2022-07-29T10:30:28;56233.47;;;-144.14;83.23
7075;BME280;3578;51.568;6.932;2022-07-29T10:33:10;56251.53;;;-144.14;84.82
7075;BME280;3578;51.568;6.932;2022-07-29T10:36:11;56301.69;;;-144.14;82.78
7075;BME280;3578;51.568;6.932;2022-07-29T10:38:47;56311.72;;;-144.14;84.25
7075;BME280;3578;51.568;6.932;2022-07-29T10:41:37;56289.63;;;-144.14;83.51
7075;BME280;3578;51.568;6.932;2022-07-29T10:44:13;56345.81;;;-144.14;84.19
7075;BME280;3578;51.568;6.932;2022-07-29T10:46:42;56323.75;;;-144.14;84.13
7075;BME280;3578;51.568;6.932;2022-07-29T10:49:12;56319.72;;;-144.14;85.33
7075;BME280;3578;51.568;6.932;2022-07-29T10:52:02;56245.50;;;-144.14;84.91
7075;BME280;3578;51.568;6.932;2022-07-29T10:54:48;56149.22;;;-144.14;86.36
7075;BME280;3578;51.568;6.932;2022-07-29T10:57:26;56195.38;;;-144.14;86.56
7075;BME280;3578;51.568;6.932;2022-07-29T11:00:28;56137.19;;;-144.14;85.95
7075;BME280;3578;51.568;6.932;2022-07-29T11:02:56;56097.09;;;-144.14;85.80
7075;BME280;3578;51.568;6.932;2022-07-29T11:05:24;56111.13;;;-144.14;84.61
7075;BME280;3578;51.568;6.932;2022-07-29T11:08:20;56073.00;;;-144.14;83.54
7075;BME280;3578;51.568;6.932;2022-07-29T11:10:50;56117.13;;;-144.14;84.64
7075;BME280;3578;51.568;6.932;2022-07-29T11:13:45;56181.31;;;-144.14;86.83
7075;BME280;3578;51.568;6.932;2022-07-29T11:16:14;56265.56;;;-144.14;86.15
7075;BME280;3578;51.568;6.932;2022-07-29T11:19:20;56335.78;;;-144.14;85.13
7075;BME280;3578;51.568;6.932;2022-07-29T11:21:48;56460.16;;;-144.14;82.67
7075;BME280;3578;51.568;6.932;2022-07-29T11:24:20;56562.44;;;-144.14;80.25
7075;BME280;3578;51.568;6.932;2022-07-29T11:27:12;56676.81;;;-144.14;77.44
7075;BME280;3578;51.568;6.932;2022-07-29T11:29:51;56809.22;;;-144.14;72.82
7075;BME280;3578;51.568;6.932;2022-07-29T11:32:20;56911.53;;;-144.14;73.27
7075;BME280;3578;51.568;6.932;2022-07-29T11:34:48;56885.44;;;-144.14;74.79
7075;BME280;3578;51.568;6.932;2022-07-29T11:37:21;56909.53;;;-144.14;71.31
7075;BME280;3578;51.568;6.932;2022-07-29T11:40:13;56899.47;;;-144.14;75.02
7075;BME280;3578;51.568;6.932;2022-07-29T11:42:43;56835.28;;;-144.14;74.66
7075;BME280;3578;51.568;6.932;2022-07-29T11:45:20;56927.56;;;-144.14;74.13
7075;BME280;3578;51.568;6.932;2022-07-29T11:47:50;56935.59;;;-144.14;74.34
7075;BME280;3578;51.568;6.932;2022-07-29T11:50:36;57011.84;;;-144.14;72.70
7075;BME280;3578;51.568;6.932;2022-07-29T11:53:11;56981.75;;;-144.14;68.10
7075;BME280;3578;51.568;6.932;2022-07-29T11:55:41;57003.81;;;-144.14;68.04
7075;BME280;3578;51.568;6.932;2022-07-29T11:58:09;57017.84;;;-144.14;66.39
7075;BME280;3578;51.568;6.932;2022-07-29T12:00:39;57007.81;;;-144.14;67.97
7075;BME280;3578;51.568;6.932;2022-07-29T12:03:09;57082.06;;;-144.14;68.40
7075;BME280;3578;51.568;6.932;2022-07-29T12:05:39;57112.16;;;-144.14;69.25
7075;BME280;3578;51.568;6.932;2022-07-29T12:08:10;57055.97;;;-144.14;67.42
7075;BME280;3578;51.568;6.932;2022-07-29T12:10:40;57114.16;;;-144.14;66.31
7075;BME280;3578;51.568;6.932;2022-07-29T12:13:08;57124.19;;;-144.14;66.88
7075;BME280;3578;51.568;6.932;2022-07-29T12:15:36;57088.09;;;-144.14;67.96
7075;BME280;3578;51.568;6.932;2022-07-29T12:18:11;57068.00;;;-144.14;63.71
7075;BME280;3578;51.568;6.932;2022-07-29T12:20:38;57084.06;;;-144.14;64.80
7075;BME280;3578;51.568;6.932;2022-07-29T12:23:06;57076.03;;;-144.14;65.90
7075;BME280;3578;51.568;6.932;2022-07-29T12:25:35;57060.00;;;-144.14;64.99
7075;BME280;3578;51.568;6.932;2022-07-29T12:28:07;57005.81;;;-144.14;63.75
7075;BME280;3578;51.568;6.932;2022-07-29T12:30:37;56989.78;;;-144.14;63.72
7075;BME280;3578;51.568;6.932;2022-07-29T12:33:21;57092.09;;;-144.14;63.11
7075;BME280;3578;51.568;6.932;2022-07-29T12:35:52;57148.28;;;-144.14;67.14
7075;BME280;3578;51.568;6.932;2022-07-29T12:38:20;57144.25;;;-144.14;69.75
7075;BME280;3578;51.568;6.932;2022-07-29T12:40:49;57192.41;;;-144.14;71.05
7075;BME280;3578;51.568;6.932;2022-07-29T12:43:21;57047.94;;;-144.14;67.27
7075;BME280;3578;51.568;6.932;2022-07-29T12:45:50;57060.00;;;-144.14;64.91
7075;BME280;3578;51.568;6.932;2022-07-29T12:48:33;56961.69;;;-144.14;62.84
7075;BME280;3578;51.568;6.932;2022-07-29T12:51:03;57003.81;;;-144.14;61.66
7075;BME280;3578;51.568;6.932;2022-07-29T12:53:31;57138.25;;;-144.14;62.97
7075;BME280;3578;51.568;6.932;2022-07-29T12:55:59;57092.09;;;-144.14;60.74
7075;BME280;3578;51.568;6.932;2022-07-29T12:58:34;57138.25;;;-144.14;63.40
7075;BME280;3578;51.568;6.932;2022-07-29T13:01:08;57136.22;;;-144.14;65.10
7075;BME280;3578;51.568;6.932;2022-07-29T13:03:49;57080.06;;;-144.14;65.33
7075;BME280;3578;51.568;6.932;2022-07-29T13:06:32;57272.66;;;-144.14;68.54
7075;BME280;3578;51.568;6.932;2022-07-29T13:09:09;57264.66;;;-144.14;67.65
7075;BME280;3578;51.568;6.932;2022-07-29T13:11:38;57222.50;;;-144.14;65.57
7075;BME280;3578;51.568;6.932;2022-07-29T13:14:08;57128.22;;;-144.14;67.50
7075;BME280;3578;51.568;6.932;2022-07-29T13:16:36;57170.34;;;-144.14;65.76
7075;BME280;3578;51.568;6.932;2022-07-29T13:19:11;57174.34;;;-144.14;65.69